La Harpe, Kansas
Current Conditions -  °F | °C
As of 10:52 AM on Thursday 23 Oct 2014 (Local Time) from KCNU Reporting Station
Overcast Overcast  
Wind Chill: 61°   Ceiling: 4600
Heat Index: 61°   Visibility: 10mi
Dew Point: 58°   Wind: 15mph
Humidity: 90%   Direction: 190°S
Pressure: 30.14"   Gusts: 22mph
Location:  37.92°N, 95.3°W
Report Text: KCNU 231552Z AUTO 19013G19KT 10SM FEW012 OVC046 16/14 A3014 RMK AO2 SLP202 T01610144
Loading
Personal Weather Stations






























Interactive Weather Map
Tropical Storm Tracking
New forecast layout! Learn more

10-Day Weather Forecast

Advertisements
Track Severe Weather on mobile